Time;durP1;ratioP1;P1;durP2;ratioP2;P2;SDS_P1;SDS_P2;PMS_P1;PMS_P2;Temp;Humidity;BMP_temperature;BMP_pressure;BME280_temperature;BME280_humidity;BME280_pressure;Samples;Min_cycle;Max_cycle;Signal;HPM_P1;HPM_P2
2022/01/13 00:01:20;;;;;;;66.35;18.75;;;5.10;99.90;;;;;;5090503;28;20080;-82
2022/01/13 00:03:45;;;;;;;55.90;18.08;;;5.10;99.90;;;;;;5090542;28;20051;-83
2022/01/13 00:06:11;;;;;;;50.67;16.52;;;5.00;99.90;;;;;;5090073;28;20048;-81
2022/01/13 00:08:37;;;;;;;50.95;17.17;;;5.00;99.90;;;;;;5090774;28;20044;-82
2022/01/13 00:11:03;;;;;;;48.80;17.45;;;5.00;99.90;;;;;;5089040;28;20402;-81
2022/01/13 00:13:43;;;;;;;51.10;14.05;;;5.00;99.90;;;;;;5090136;28;20043;-83
2022/01/13 00:16:37;;;;;;;56.38;14.20;;;5.00;99.90;;;;;;5077215;28;20048;-83
2022/01/13 00:22:16;;;;;;;44.95;12.75;;;4.90;99.90;;;;;;5069714;28;20413;-83
2022/01/13 00:24:27;;;;;;;37.83;13.27;;;4.90;99.90;;;;;;5069558;28;20055;-84
2022/01/13 00:26:54;;;;;;;53.33;13.32;;;4.90;99.90;;;;;;5069729;28;20037;-81
2022/01/13 00:29:26;;;;;;;40.10;12.07;;;4.90;99.90;;;;;;5069782;28;20044;-84
2022/01/13 00:31:52;;;;;;;35.78;12.88;;;4.90;99.90;;;;;;5068730;28;20175;-81
2022/01/13 00:34:18;;;;;;;38.60;13.48;;;5.50;99.90;;;;;;5070279;28;20123;-81
2022/01/13 00:36:43;;;;;;;39.92;13.98;;;4.80;99.90;;;;;;5068660;28;20040;-81
2022/01/13 00:39:11;;;;;;;34.38;12.77;;;4.80;99.90;;;;;;5069607;28;20800;-82
2022/01/13 00:41:37;;;;;;;37.20;12.65;;;4.80;99.90;;;;;;5069773;28;20055;-79
2022/01/13 00:44:05;;;;;;;39.53;14.20;;;5.00;99.90;;;;;;5069680;28;20094;-80
2022/01/13 00:46:41;;;;;;;37.90;14.30;;;4.80;99.90;;;;;;5069746;28;20041;-79
2022/01/13 00:49:08;;;;;;;36.33;14.05;;;5.30;99.90;;;;;;5069886;28;20048;-79
2022/01/13 00:51:34;;;;;;;40.00;14.93;;;4.90;99.90;;;;;;5069777;28;20054;-85
2022/01/13 00:54:04;;;;;;;43.72;15.07;;;4.80;99.90;;;;;;5069397;28;20090;-81
2022/01/13 00:56:32;;;;;;;53.20;15.65;;;4.80;99.90;;;;;;5058632;28;20446;-80
2022/01/13 00:58:59;;;;;;;38.92;16.13;;;4.90;99.90;;;;;;5049728;28;20045;-79
2022/01/13 01:01:24;;;;;;;44.45;17.23;;;4.80;99.90;;;;;;5049482;28;20048;-79
2022/01/13 01:03:50;;;;;;;46.78;17.95;;;4.80;99.90;;;;;;5050076;28;20052;-79
2022/01/13 01:06:16;;;;;;;49.97;17.58;;;4.80;99.90;;;;;;5035128;28;20040;-80
2022/01/13 01:08:42;;;;;;;47.78;16.55;;;4.80;99.90;;;;;;5052934;28;20049;-81
2022/01/13 01:11:08;;;;;;;48.03;16.98;;;4.80;99.90;;;;;;5034995;28;20052;-80
2022/01/13 01:13:36;;;;;;;54.03;16.80;;;4.80;99.90;;;;;;5053250;28;20403;-80
2022/01/13 01:16:06;;;;;;;49.40;17.15;;;4.80;99.90;;;;;;5053356;28;20174;-79
2022/01/13 01:23:56;;;;;;;50.13;16.10;;;4.80;99.90;;;;;;5052827;28;20049;-79
2022/01/13 01:29:14;;;;;;;53.65;17.65;;;4.80;99.90;;;;;;5035458;28;20057;-79
2022/01/13 01:31:46;;;;;;;50.50;14.57;;;4.80;99.90;;;;;;5052964;28;20053;-78
2022/01/13 01:36:57;;;;;;;60.40;16.48;;;4.80;99.90;;;;;;5053103;28;20136;-82
2022/01/13 01:39:23;;;;;;;54.50;16.08;;;5.30;99.90;;;;;;5053058;28;20174;-80
2022/01/13 01:41:51;;;;;;;55.55;16.63;;;4.80;99.90;;;;;;5052212;28;20041;-84
2022/01/13 01:44:34;;;;;;;52.13;17.27;;;4.70;99.90;;;;;;5052699;28;20075;-86
2022/01/13 01:47:00;;;;;;;56.72;17.52;;;4.70;99.90;;;;;;5052889;28;20071;-87
2022/01/13 01:49:27;;;;;;;51.60;15.80;;;4.70;99.90;;;;;;5052806;28;20037;-85
2022/01/13 01:51:56;;;;;;;56.25;17.40;;;4.70;99.90;;;;;;5034751;28;20084;-83
2022/01/13 01:54:23;;;;;;;50.20;16.48;;;4.70;99.90;;;;;;5052997;28;20048;-84
2022/01/13 01:56:50;;;;;;;50.10;17.42;;;4.70;99.90;;;;;;5065429;28;20055;-84
2022/01/13 01:59:19;;;;;;;65.15;18.42;;;4.60;99.90;;;;;;5072757;28;20053;-82
2022/01/13 02:01:46;;;;;;;75.05;19.17;;;4.60;99.90;;;;;;5072451;28;20045;-85
2022/01/13 02:04:12;;;;;;;71.85;17.50;;;4.70;99.90;;;;;;5071269;28;20502;-83
2022/01/13 02:06:38;;;;;;;59.00;19.13;;;4.70;99.90;;;;;;5072380;28;20052;-86
2022/01/13 02:09:06;;;;;;;61.20;18.40;;;4.70;99.90;;;;;;5072842;28;20045;-83
2022/01/13 02:11:41;;;;;;;65.32;18.52;;;4.70;99.90;;;;;;5071572;28;20079;-87
2022/01/13 02:14:31;;;;;;;58.45;18.05;;;4.70;99.90;;;;;;5072504;28;20056;-84
2022/01/13 02:17:09;;;;;;;51.40;17.38;;;4.70;99.90;;;;;;5071097;28;20048;-84
2022/01/13 02:19:38;;;;;;;48.15;16.58;;;4.70;99.90;;;;;;5071687;28;20084;-88
2022/01/13 02:22:04;;;;;;;59.70;17.38;;;4.80;99.90;;;;;;5072041;28;20135;-86
2022/01/13 02:24:30;;;;;;;52.40;17.98;;;5.30;99.90;;;;;;5072186;28;20067;-88
2022/01/13 02:26:56;;;;;;;59.72;19.08;;;5.50;99.90;;;;;;5070392;28;20048;-88
2022/01/13 02:29:22;;;;;;;60.28;18.30;;;4.70;99.90;;;;;;5071967;28;20052;-84
2022/01/13 02:31:48;;;;;;;58.33;18.20;;;4.70;99.90;;;;;;5072176;28;20040;-86
2022/01/13 02:34:14;;;;;;;50.70;17.15;;;4.70;99.90;;;;;;5072276;28;20402;-87
2022/01/13 02:36:42;;;;;;;57.33;16.40;;;5.20;99.90;;;;;;5072141;28;20041;-87
2022/01/13 02:39:07;;;;;;;52.72;17.20;;;4.70;99.90;;;;;;5070608;28;20091;-85
2022/01/13 02:41:33;;;;;;;61.20;17.35;;;4.90;99.90;;;;;;5071655;28;20040;-86
2022/01/13 02:44:00;;;;;;;55.85;17.35;;;5.30;99.90;;;;;;5071755;28;20056;-90
2022/01/13 02:49:08;;;;;;;55.20;17.02;;;4.70;99.90;;;;;;5071571;28;20084;-89
2022/01/13 02:51:34;;;;;;;69.65;17.80;;;4.60;99.90;;;;;;5071650;28;20053;-88
2022/01/13 02:54:00;;;;;;;53.00;16.63;;;4.60;99.90;;;;;;5071613;28;20072;-88
2022/01/13 02:56:27;;;;;;;51.35;16.50;;;4.60;99.90;;;;;;5061027;28;20098;-87
2022/01/13 02:58:53;;;;;;;61.63;18.13;;;4.60;99.90;;;;;;5051331;28;20060;-85
2022/01/13 03:01:19;;;;;;;57.20;15.80;;;4.60;99.90;;;;;;5051501;28;20063;-84
2022/01/13 03:03:45;;;;;;;60.65;18.25;;;4.60;99.90;;;;;;5051584;28;20412;-86
2022/01/13 03:06:13;;;;;;;51.50;17.73;;;5.20;99.90;;;;;;5051643;28;20056;-88
2022/01/13 03:08:42;;;;;;;51.55;16.65;;;4.60;99.90;;;;;;5051486;28;20044;-87
2022/01/13 03:11:09;;;;;;;51.60;16.80;;;4.60;99.90;;;;;;5051605;28;20110;-88
2022/01/13 03:13:34;;;;;;;70.88;18.70;;;4.60;99.90;;;;;;5051515;28;20045;-87
2022/01/13 03:16:11;;;;;;;55.47;18.50;;;4.60;99.90;;;;;;5050786;28;20075;-88
2022/01/13 03:18:38;;;;;;;61.53;16.98;;;4.60;99.90;;;;;;5051304;28;20049;-85
2022/01/13 03:21:05;;;;;;;65.15;18.42;;;4.60;99.90;;;;;;5033540;28;20049;-88
2022/01/13 03:23:32;;;;;;;58.85;17.77;;;4.60;99.90;;;;;;5051010;28;20049;-87
2022/01/13 03:25:57;;;;;;;65.50;17.08;;;4.60;99.90;;;;;;5050884;28;20045;-85
2022/01/13 03:28:38;;;;;;;69.00;17.98;;;4.60;99.90;;;;;;5050721;28;20407;-87
2022/01/13 03:31:10;;;;;;;68.40;17.13;;;4.60;99.90;;;;;;5033156;28;20073;-85
2022/01/13 03:33:35;;;;;;;82.53;19.13;;;5.20;99.90;;;;;;5051294;28;20041;-88
2022/01/13 03:36:02;;;;;;;80.65;17.35;;;4.60;99.90;;;;;;5051318;28;20053;-87
2022/01/13 03:38:30;;;;;;;75.85;17.58;;;4.60;99.90;;;;;;5051441;28;20087;-86
2022/01/13 03:40:56;;;;;;;87.53;18.88;;;4.60;99.90;;;;;;5035646;28;20053;-89
2022/01/13 03:43:21;;;;;;;69.53;17.02;;;4.60;99.90;;;;;;5052710;28;20048;-87
2022/01/13 03:45:47;;;;;;;110.85;20.33;;;5.40;99.90;;;;;;5052968;28;20057;-88
2022/01/13 03:48:13;;;;;;;72.93;17.90;;;4.60;99.90;;;;;;5064581;28;20125;-87
2022/01/13 03:50:43;;;;;;;80.82;19.08;;;4.60;99.90;;;;;;5066021;28;20403;-81
2022/01/13 03:53:30;;;;;;;96.05;17.98;;;4.70;99.90;;;;;;5015714;28;20056;-83
2022/01/13 03:56:33;;;;;;;99.22;20.50;;;4.70;99.90;;;;;;5015856;28;20052;-88
2022/01/13 03:59:20;;;;;;;94.10;17.85;;;4.70;99.90;;;;;;5069303;28;20082;-88
2022/01/13 04:01:58;;;;;;;101.80;18.98;;;4.70;99.90;;;;;;5071452;28;20380;-87
2022/01/13 04:04:23;;;;;;;81.38;19.23;;;4.70;99.90;;;;;;5072040;28;20040;-88
2022/01/13 04:06:49;;;;;;;87.60;18.27;;;4.70;99.90;;;;;;5068986;28;20083;-87
2022/01/13 04:09:33;;;;;;;98.07;19.95;;;4.70;99.90;;;;;;5051083;28;20037;-86
2022/01/13 04:12:06;;;;;;;75.60;18.75;;;4.80;99.90;;;;;;5050427;28;20041;-85
2022/01/13 04:14:43;;;;;;;89.45;17.88;;;4.90;99.90;;;;;;5066663;28;20048;-87
2022/01/13 04:17:11;;;;;;;84.07;16.38;;;4.80;99.90;;;;;;5070873;28;20036;-87
2022/01/13 04:19:37;;;;;;;111.15;20.85;;;4.80;99.90;;;;;;5070370;28;20107;-87
2022/01/13 04:22:03;;;;;;;86.88;18.92;;;4.80;99.90;;;;;;5064757;28;20530;-91
2022/01/13 04:24:29;;;;;;;108.63;17.85;;;4.80;99.90;;;;;;5070364;28;20088;-82
2022/01/13 04:26:56;;;;;;;83.05;19.08;;;4.80;99.90;;;;;;5053360;28;20083;-81
2022/01/13 04:29:37;;;;;;;105.65;19.77;;;4.80;99.90;;;;;;5050281;28;20049;-79
2022/01/13 04:32:04;;;;;;;92.88;18.02;;;4.80;99.90;;;;;;5050061;28;20049;-82
2022/01/13 04:34:30;;;;;;;93.40;19.70;;;4.80;99.90;;;;;;5065774;28;20051;-81
2022/01/13 04:36:57;;;;;;;104.25;19.58;;;4.80;99.90;;;;;;5070028;28;20048;-81
2022/01/13 04:39:24;;;;;;;85.38;19.70;;;4.90;99.90;;;;;;5071099;28;20140;-82
2022/01/13 04:41:50;;;;;;;100.75;18.35;;;4.90;99.90;;;;;;5073686;28;20036;-81
2022/01/13 04:44:17;;;;;;;104.13;19.17;;;4.90;99.90;;;;;;5073442;28;20394;-80
2022/01/13 04:46:45;;;;;;;88.82;18.63;;;4.90;99.90;;;;;;5073666;28;20041;-81
2022/01/13 04:49:11;;;;;;;114.47;17.77;;;4.90;99.90;;;;;;5073527;28;20059;-81
2022/01/13 04:51:38;;;;;;;126.72;18.95;;;4.90;99.90;;;;;;5073583;28;20048;-86
2022/01/13 04:54:04;;;;;;;126.47;20.63;;;4.80;99.90;;;;;;5072858;28;20044;-81
2022/01/13 04:56:43;;;;;;;88.53;17.17;;;4.80;99.90;;;;;;5073334;28;20060;-80
2022/01/13 04:59:10;;;;;;;146.73;19.42;;;4.80;99.90;;;;;;5073123;28;20136;-79
2022/01/13 05:01:37;;;;;;;128.57;17.42;;;4.80;99.90;;;;;;5057641;28;20442;-81
2022/01/13 05:04:04;;;;;;;111.40;17.13;;;4.80;99.90;;;;;;5053022;28;20132;-81
2022/01/13 05:06:30;;;;;;;89.65;16.92;;;4.90;99.90;;;;;;5071678;28;20044;-79
2022/01/13 05:08:55;;;;;;;173.50;17.33;;;4.90;99.90;;;;;;5073370;28;20402;-81
2022/01/13 05:11:21;;;;;;;98.57;15.35;;;4.90;99.90;;;;;;5073288;28;20036;-80
2022/01/13 05:13:47;;;;;;;127.25;17.98;;;4.90;99.90;;;;;;5070142;28;20052;-81
2022/01/13 05:16:28;;;;;;;137.20;17.27;;;4.90;99.90;;;;;;5073166;28;20126;-79
2022/01/13 05:19:08;;;;;;;108.00;16.13;;;4.90;99.90;;;;;;5072978;28;20055;-82
2022/01/13 05:24:11;;;;;;;112.10;16.00;;;4.90;99.90;;;;;;5053062;28;20080;-80
2022/01/13 05:26:37;;;;;;;129.98;16.45;;;4.90;99.90;;;;;;5068113;28;20040;-80
2022/01/13 05:29:03;;;;;;;104.00;18.17;;;4.90;99.90;;;;;;5072851;28;20074;-80
2022/01/13 05:31:29;;;;;;;96.90;16.70;;;4.90;99.90;;;;;;5072807;28;20128;-82
2022/01/13 05:33:55;;;;;;;132.90;18.63;;;4.90;99.90;;;;;;5072777;28;20119;-85
2022/01/13 05:36:21;;;;;;;115.38;19.05;;;5.00;99.90;;;;;;5071221;28;20118;-85
2022/01/13 05:38:47;;;;;;;121.93;18.75;;;5.00;99.90;;;;;;5058903;28;20049;-87
2022/01/13 05:41:12;;;;;;;110.25;18.45;;;5.00;99.90;;;;;;5051557;28;20408;-86
2022/01/13 05:43:38;;;;;;;122.80;19.02;;;5.10;99.90;;;;;;5062645;28;20399;-87
2022/01/13 05:46:04;;;;;;;170.30;20.60;;;5.70;99.90;;;;;;5071420;28;20170;-87
2022/01/13 05:48:31;;;;;;;165.77;20.38;;;5.10;99.90;;;;;;5072916;28;20059;-87
2022/01/13 05:50:57;;;;;;;162.38;20.90;;;5.10;99.90;;;;;;5072023;28;20052;-88
2022/01/13 05:53:23;;;;;;;148.38;22.73;;;5.10;99.90;;;;;;5056089;28;20135;-85
2022/01/13 05:55:49;;;;;;;160.27;21.00;;;5.10;99.90;;;;;;5057156;28;20443;-86
2022/01/13 05:58:14;;;;;;;156.80;21.23;;;6.00;99.90;;;;;;5054997;28;20057;-91
2022/01/13 06:00:40;;;;;;;157.77;21.63;;;5.20;99.90;;;;;;5052402;28;20041;-83
2022/01/13 06:03:06;;;;;;;126.85;20.90;;;5.20;99.90;;;;;;5061213;28;20040;-85
2022/01/13 06:05:32;;;;;;;143.07;21.15;;;5.20;99.90;;;;;;5072211;28;20036;-85
2022/01/13 06:07:58;;;;;;;138.98;20.73;;;5.20;99.90;;;;;;5071951;28;20048;-86
2022/01/13 06:10:24;;;;;;;129.20;18.85;;;5.30;99.90;;;;;;5072688;28;20044;-87
2022/01/13 06:12:51;;;;;;;140.98;23.27;;;6.10;99.90;;;;;;5071060;28;20062;-88
2022/01/13 06:15:19;;;;;;;144.75;23.45;;;5.30;99.90;;;;;;5072426;28;20056;-85
2022/01/13 06:17:47;;;;;;;135.02;21.52;;;5.30;99.90;;;;;;5070834;28;20257;-85
2022/01/13 06:20:14;;;;;;;119.32;23.25;;;5.30;99.90;;;;;;5071885;28;20487;-84
2022/01/13 06:22:43;;;;;;;136.48;22.85;;;5.40;99.90;;;;;;5055116;28;20053;-84
2022/01/13 06:25:11;;;;;;;147.88;22.98;;;6.20;99.90;;;;;;5053591;28;20044;-89
2022/01/13 06:27:37;;;;;;;149.30;24.52;;;5.40;99.90;;;;;;5054156;28;20052;-88
2022/01/13 06:30:05;;;;;;;122.25;22.58;;;5.50;99.90;;;;;;5055826;28;20593;-89
2022/01/13 06:32:31;;;;;;;133.43;23.77;;;5.50;99.90;;;;;;5071794;28;20048;-88
2022/01/13 06:34:56;;;;;;;136.02;22.42;;;5.50;99.90;;;;;;5076858;28;20048;-88
2022/01/13 06:37:22;;;;;;;135.10;24.90;;;6.00;99.90;;;;;;5076590;28;20483;-87
2022/01/13 06:39:48;;;;;;;132.98;24.70;;;5.60;99.90;;;;;;5072644;28;20060;-86
2022/01/13 06:42:14;;;;;;;146.05;25.02;;;5.50;99.90;;;;;;5072235;28;20052;-87
2022/01/13 06:44:40;;;;;;;147.25;24.58;;;5.60;99.90;;;;;;5070958;28;20044;-88
2022/01/13 06:47:06;;;;;;;152.23;26.67;;;5.60;99.90;;;;;;5072083;28;20120;-87
2022/01/13 06:49:33;;;;;;;131.43;24.60;;;5.60;99.90;;;;;;5071311;28;20815;-88
2022/01/13 06:51:59;;;;;;;108.18;20.52;;;5.60;99.90;;;;;;5071370;28;20055;-88
2022/01/13 06:54:25;;;;;;;132.60;24.58;;;5.70;99.90;;;;;;5071817;28;20049;-87
2022/01/13 06:56:52;;;;;;;139.00;23.48;;;5.60;99.90;;;;;;5071263;28;20052;-85
2022/01/13 06:59:18;;;;;;;155.18;26.77;;;5.60;99.90;;;;;;5070251;28;20052;-85
2022/01/13 07:01:44;;;;;;;149.00;26.17;;;5.70;99.90;;;;;;5070373;28;20380;-87
2022/01/13 07:04:12;;;;;;;155.23;26.83;;;5.60;99.90;;;;;;5070289;28;20052;-87
2022/01/13 07:06:38;;;;;;;184.93;28.52;;;6.10;99.90;;;;;;5071543;28;20093;-87
2022/01/13 07:09:06;;;;;;;156.65;26.77;;;5.70;99.90;;;;;;5070409;28;20509;-81
2022/01/13 07:11:32;;;;;;;157.25;26.40;;;6.30;99.90;;;;;;5052192;28;20487;-85
2022/01/13 07:13:58;;;;;;;121.10;23.73;;;6.00;99.90;;;;;;5064122;28;20071;-86
2022/01/13 07:16:23;;;;;;;125.35;25.25;;;5.70;99.90;;;;;;5070938;28;20040;-88
2022/01/13 07:18:49;;;;;;;154.77;26.60;;;5.70;99.90;;;;;;5071062;28;20504;-88
2022/01/13 07:21:16;;;;;;;127.07;24.63;;;5.70;99.90;;;;;;5070463;28;20044;-86
2022/01/13 07:23:43;;;;;;;110.72;21.23;;;5.70;99.90;;;;;;5070924;28;20067;-82
2022/01/13 07:26:09;;;;;;;163.38;26.20;;;5.70;99.90;;;;;;5070712;28;20052;-83
2022/01/13 07:28:34;;;;;;;130.15;21.92;;;5.70;99.90;;;;;;5070841;28;20044;-80
2022/01/13 07:31:00;;;;;;;113.60;22.38;;;5.70;99.90;;;;;;5070517;28;20104;-82
2022/01/13 07:33:26;;;;;;;128.90;22.65;;;5.60;99.90;;;;;;5070248;28;20133;-83
2022/01/13 07:35:51;;;;;;;120.78;21.70;;;5.60;99.90;;;;;;5070436;28;20051;-78
2022/01/13 07:38:17;;;;;;;132.50;22.58;;;5.70;99.90;;;;;;5070296;28;20048;-84
2022/01/13 07:40:43;;;;;;;99.28;20.25;;;5.70;99.90;;;;;;5050170;28;20066;-84
2022/01/13 07:43:09;;;;;;;103.32;22.25;;;5.80;99.90;;;;;;5069658;28;20048;-83
2022/01/13 07:45:35;;;;;;;100.78;20.63;;;5.70;99.90;;;;;;5070220;28;20094;-81
2022/01/13 07:48:01;;;;;;;94.78;20.88;;;5.70;99.90;;;;;;5070028;28;20041;-82
2022/01/13 07:50:26;;;;;;;117.22;22.55;;;6.10;99.90;;;;;;5068698;28;20070;-84
2022/01/13 07:52:52;;;;;;;104.75;22.85;;;6.00;99.90;;;;;;5041683;28;20072;-87
2022/01/13 07:55:18;;;;;;;110.07;23.33;;;5.70;99.90;;;;;;5067975;28;20056;-82
2022/01/13 07:57:43;;;;;;;96.88;22.17;;;5.70;99.90;;;;;;5068509;28;20060;-81
2022/01/13 08:00:11;;;;;;;96.50;21.05;;;5.70;99.90;;;;;;5070865;28;20052;-83
2022/01/13 08:02:38;;;;;;;78.75;21.48;;;5.70;99.90;;;;;;5070767;28;20092;-81
2022/01/13 08:05:04;;;;;;;105.38;22.73;;;5.70;99.90;;;;;;5070969;28;20055;-81
2022/01/13 08:07:30;;;;;;;105.65;22.75;;;5.70;99.90;;;;;;5070749;28;20080;-81
2022/01/13 08:09:55;;;;;;;93.70;21.48;;;6.50;99.90;;;;;;5070521;28;20076;-81
2022/01/13 08:12:21;;;;;;;102.18;22.27;;;5.70;99.90;;;;;;5070378;28;20463;-81
2022/01/13 08:14:49;;;;;;;86.40;20.33;;;5.70;99.90;;;;;;5073850;28;20122;-82
2022/01/13 08:19:59;;;;;;;87.43;22.07;;;5.70;99.90;;;;;;5073617;28;20044;-80
2022/01/13 08:22:24;;;;;;;101.65;21.77;;;5.70;99.90;;;;;;5073588;28;20135;-79
2022/01/13 08:24:50;;;;;;;107.65;23.58;;;5.70;99.90;;;;;;5074016;28;20114;-80
2022/01/13 08:27:16;;;;;;;102.50;22.02;;;6.40;99.90;;;;;;5073828;28;20049;-80
2022/01/13 08:29:41;;;;;;;94.10;22.88;;;5.70;99.90;;;;;;5073294;28;20032;-83
2022/01/13 08:32:07;;;;;;;82.93;20.35;;;6.60;99.90;;;;;;5060762;28;20048;-80
2022/01/13 08:34:33;;;;;;;87.80;20.30;;;6.00;99.90;;;;;;5052609;28;20040;-80
2022/01/13 08:36:58;;;;;;;99.93;22.77;;;5.70;99.90;;;;;;5052649;28;20053;-81
2022/01/13 08:39:24;;;;;;;84.25;20.20;;;5.70;99.90;;;;;;5064807;28;20055;-86
2022/01/13 08:41:50;;;;;;;103.85;23.65;;;5.80;99.90;;;;;;5073695;28;20451;-81
2022/01/13 08:44:16;;;;;;;96.28;23.80;;;5.80;99.90;;;;;;5073580;28;20411;-80
2022/01/13 08:46:42;;;;;;;88.88;24.10;;;5.70;99.90;;;;;;5073382;28;20777;-81
2022/01/13 08:49:09;;;;;;;96.75;22.77;;;5.80;99.90;;;;;;5073721;28;20044;-81
2022/01/13 08:51:35;;;;;;;102.00;24.00;;;5.80;99.90;;;;;;5073541;28;20541;-81
2022/01/13 08:54:01;;;;;;;100.40;24.63;;;5.80;99.90;;;;;;5073603;28;20139;-79
2022/01/13 08:56:26;;;;;;;107.68;24.73;;;5.80;99.90;;;;;;5073774;28;20406;-81
2022/01/13 08:58:52;;;;;;;92.80;25.23;;;5.80;99.90;;;;;;5073421;28;20059;-82
2022/01/13 09:01:18;;;;;;;99.85;24.98;;;5.80;99.90;;;;;;5073097;28;20071;-80
2022/01/13 09:03:43;;;;;;;88.20;23.83;;;5.80;99.90;;;;;;5073381;28;20052;-82
2022/01/13 09:06:09;;;;;;;101.85;25.08;;;5.90;99.90;;;;;;5073423;28;20044;-80
2022/01/13 09:08:35;;;;;;;96.15;24.55;;;5.90;99.90;;;;;;5073204;28;20402;-78
2022/01/13 09:11:01;;;;;;;102.75;26.70;;;5.90;99.90;;;;;;5073453;28;20123;-79
2022/01/13 09:13:26;;;;;;;104.55;26.50;;;5.90;99.90;;;;;;5073433;28;20048;-79
2022/01/13 09:15:58;;;;;;;87.70;24.20;;;5.90;99.90;;;;;;5072476;28;20048;-78
2022/01/13 09:18:48;;;;;;;86.35;24.83;;;5.90;99.90;;;;;;5073049;28;20426;-77
2022/01/13 09:21:15;;;;;;;96.05;25.52;;;6.40;99.90;;;;;;5073253;28;20484;-81
2022/01/13 09:23:41;;;;;;;78.25;24.48;;;5.90;99.90;;;;;;5073121;28;20525;-79
2022/01/13 09:26:07;;;;;;;108.53;26.75;;;5.90;99.90;;;;;;5071132;28;20087;-85
2022/01/13 09:28:34;;;;;;;82.13;25.13;;;5.90;99.90;;;;;;5073228;28;20510;-81
2022/01/13 09:31:00;;;;;;;64.47;19.02;;;6.00;99.90;;;;;;5073113;28;20037;-81
2022/01/13 09:33:26;;;;;;;90.80;24.52;;;5.90;99.90;;;;;;5071130;28;20106;-79
2022/01/13 09:35:52;;;;;;;87.45;25.63;;;6.00;99.90;;;;;;5071334;28;20044;-80
2022/01/13 09:38:18;;;;;;;97.55;25.55;;;6.60;99.90;;;;;;5072765;28;20140;-83
2022/01/13 09:40:46;;;;;;;83.13;24.98;;;6.00;99.90;;;;;;5072709;28;20048;-79
2022/01/13 09:43:12;;;;;;;83.75;27.15;;;6.00;99.90;;;;;;5072461;28;20058;-83
2022/01/13 09:45:40;;;;;;;77.57;23.02;;;6.00;99.90;;;;;;5072554;28;20056;-81
2022/01/13 09:48:06;;;;;;;81.00;22.73;;;6.00;99.90;;;;;;5072035;28;20055;-81
2022/01/13 09:50:32;;;;;;;91.65;26.42;;;6.80;99.90;;;;;;5072510;28;20148;-81
2022/01/13 09:52:58;;;;;;;89.13;25.10;;;6.10;99.90;;;;;;5072604;28;20280;-79
2022/01/13 09:55:24;;;;;;;84.32;26.23;;;6.00;99.90;;;;;;5072392;28;20044;-79
2022/01/13 09:57:52;;;;;;;84.82;25.05;;;6.00;99.90;;;;;;5072446;28;20083;-80
2022/01/13 10:00:21;;;;;;;85.22;25.38;;;6.10;99.90;;;;;;5072408;28;20393;-81
2022/01/13 10:02:47;;;;;;;95.78;25.75;;;6.10;99.90;;;;;;5071636;28;20087;-81
2022/01/13 10:05:16;;;;;;;85.15;25.15;;;6.10;99.90;;;;;;5072080;28;20397;-80
2022/01/13 10:07:43;;;;;;;93.80;26.10;;;6.10;99.90;;;;;;5072489;28;20048;-80
2022/01/13 10:10:16;;;;;;;85.47;25.25;;;6.10;99.90;;;;;;5072175;28;20491;-80
2022/01/13 10:12:48;;;;;;;96.65;24.77;;;6.10;99.90;;;;;;5072148;28;20510;-79
2022/01/13 10:18:01;;;;;;;76.65;23.85;;;6.10;99.90;;;;;;5071882;28;20055;-79
2022/01/13 10:20:27;;;;;;;82.70;24.05;;;6.20;99.90;;;;;;5071711;28;20059;-81
2022/01/13 10:22:53;;;;;;;73.57;23.90;;;6.10;99.90;;;;;;5071351;28;20094;-80
2022/01/13 10:25:38;;;;;;;86.43;25.90;;;6.10;99.90;;;;;;5064826;28;20044;-82
2022/01/13 10:28:20;;;;;;;78.13;23.20;;;6.10;99.90;;;;;;5057176;28;20048;-81
2022/01/13 10:30:51;;;;;;;68.10;23.83;;;6.10;99.90;;;;;;5047205;28;20294;-83
2022/01/13 10:33:21;;;;;;;69.13;23.00;;;6.10;99.90;;;;;;5070202;28;20086;-81
2022/01/13 10:35:50;;;;;;;88.28;26.75;;;6.20;99.90;;;;;;5071115;28;20052;-82
2022/01/13 10:38:16;;;;;;;69.43;24.70;;;6.20;99.90;;;;;;5070608;28;20101;-82
2022/01/13 10:40:47;;;;;;;82.97;27.50;;;6.80;99.90;;;;;;5071351;28;20085;-81
2022/01/13 10:43:16;;;;;;;88.22;27.50;;;6.20;99.90;;;;;;5071349;28;20052;-84
2022/01/13 10:45:47;;;;;;;84.32;25.75;;;6.40;99.90;;;;;;5071205;28;20053;-81
2022/01/13 10:48:24;;;;;;;73.68;24.25;;;6.20;99.90;;;;;;5071445;28;20037;-83
2022/01/13 10:51:04;;;;;;;84.60;24.45;;;6.20;99.90;;;;;;5070848;28;20044;-83
2022/01/13 10:53:34;;;;;;;79.93;25.40;;;6.20;99.90;;;;;;5069778;28;20049;-82
2022/01/13 10:56:06;;;;;;;75.38;25.38;;;6.30;99.90;;;;;;5071150;28;20384;-80
2022/01/13 10:58:49;;;;;;;91.13;26.05;;;6.30;99.90;;;;;;5128686;27;20424;-78
2022/01/13 11:01:15;;;;;;;86.18;27.77;;;6.30;99.90;;;;;;5127424;27;20051;-78
2022/01/13 11:03:43;;;;;;;72.35;24.98;;;6.30;99.90;;;;;;5128593;27;20048;-81
2022/01/13 11:06:10;;;;;;;78.18;25.52;;;6.30;99.90;;;;;;5128649;27;20039;-80
2022/01/13 11:08:43;;;;;;;79.05;26.92;;;6.30;99.90;;;;;;5128693;27;20043;-81
2022/01/13 11:11:18;;;;;;;70.30;24.17;;;6.30;99.90;;;;;;5128640;27;20490;-83
2022/01/13 11:13:52;;;;;;;;;;;6.40;99.90;;;;;;5127483;27;20501;-79
2022/01/13 11:16:18;;;;;;;57.33;21.50;;;6.40;99.90;;;;;;5128733;27;19978;-79
2022/01/13 11:18:44;;;;;;;62.97;21.98;;;6.40;99.90;;;;;;5128797;27;20067;-81
2022/01/13 11:21:10;;;;;;;64.10;23.52;;;6.40;99.90;;;;;;5126805;28;20043;-83
2022/01/13 11:23:38;;;;;;;67.78;24.88;;;6.40;99.90;;;;;;5128328;27;20047;-79
2022/01/13 11:26:06;;;;;;;71.95;23.95;;;6.40;99.90;;;;;;5128425;27;20043;-79
2022/01/13 11:28:35;;;;;;;66.15;22.73;;;7.30;99.90;;;;;;5128184;27;20054;-78
2022/01/13 11:31:01;;;;;;;64.05;24.65;;;6.40;99.90;;;;;;5126755;28;20501;-80
2022/01/13 11:33:27;;;;;;;58.67;21.92;;;6.40;99.90;;;;;;5127042;27;20054;-78
2022/01/13 11:35:56;;;;;;;51.20;19.25;;;6.40;99.90;;;;;;5128497;27;20505;-82
2022/01/13 11:38:25;;;;;;;67.65;20.95;;;6.40;99.90;;;;;;5128105;27;20126;-79
2022/01/13 11:40:58;;;;;;;63.60;19.95;;;6.40;99.90;;;;;;5128144;27;20139;-78
2022/01/13 11:43:35;;;;;;;74.95;22.95;;;6.40;99.90;;;;;;5127996;27;20059;-80
2022/01/13 11:46:21;;;;;;;60.83;23.92;;;6.40;99.90;;;;;;5128061;27;20397;-78
2022/01/13 11:49:05;;;;;;;72.80;25.67;;;6.40;99.90;;;;;;5126407;27;20043;-78
2022/01/13 11:51:43;;;;;;;79.57;26.10;;;6.40;99.90;;;;;;5128291;27;20110;-79
2022/01/13 11:54:10;;;;;;;67.72;23.90;;;6.40;99.90;;;;;;5127265;27;20108;-80
2022/01/13 11:56:36;;;;;;;70.72;23.95;;;6.40;99.90;;;;;;5126093;28;20051;-78
2022/01/13 11:59:09;;;;;;;77.40;23.42;;;6.40;99.90;;;;;;5127506;28;20111;-78
2022/01/13 12:01:35;;;;;;;73.60;26.13;;;6.40;99.90;;;;;;5127653;27;20180;-79
2022/01/13 12:04:04;;;;;;;69.45;23.25;;;6.50;99.90;;;;;;5126439;28;20590;-80
2022/01/13 12:06:43;;;;;;;68.57;24.08;;;6.50;99.90;;;;;;5126380;28;20039;-79
2022/01/13 12:09:11;;;;;;;67.85;25.67;;;6.50;99.90;;;;;;5118455;27;20051;-79
2022/01/13 12:11:50;;;;;;;70.40;25.30;;;6.50;99.90;;;;;;5114071;28;20648;-80
2022/01/13 12:14:27;;;;;;;66.25;24.48;;;6.50;99.90;;;;;;5112927;28;20055;-79
2022/01/13 12:16:59;;;;;;;73.03;25.42;;;6.60;99.90;;;;;;5113913;27;20047;-81
2022/01/13 12:19:34;;;;;;;65.82;24.48;;;6.60;99.90;;;;;;5112119;28;20044;-85
2022/01/13 12:22:05;;;;;;;58.17;25.63;;;6.60;99.90;;;;;;5111202;28;20047;-81
2022/01/13 12:24:54;;;;;;;59.15;23.38;;;6.60;99.90;;;;;;5112866;28;20061;-81
2022/01/13 12:27:40;;;;;;;57.40;25.08;;;6.60;99.90;;;;;;5112779;27;20046;-83
2022/01/13 12:30:19;;;;;;;63.75;26.98;;;6.70;99.90;;;;;;5122353;27;20047;-80
2022/01/13 12:32:51;;;;;;;54.90;22.73;;;6.70;99.90;;;;;;5127826;27;20056;-81
2022/01/13 12:35:30;;;;;;;57.72;22.88;;;7.40;99.90;;;;;;5112071;28;20043;-81
2022/01/13 12:38:05;;;;;;;54.75;23.45;;;6.80;99.90;;;;;;5111299;28;20493;-80
2022/01/13 12:40:39;;;;;;;58.45;24.35;;;6.80;99.90;;;;;;5112834;28;20855;-81
2022/01/13 12:46:09;;;;;;;55.53;22.65;;;6.90;99.90;;;;;;5113110;28;20046;-80
2022/01/13 12:48:36;;;;;;;57.00;24.23;;;7.70;99.90;;;;;;5113003;28;20046;-83
2022/01/13 12:51:02;;;;;;;45.38;22.90;;;7.00;99.90;;;;;;5112722;28;20036;-80
2022/01/13 12:53:32;;;;;;;50.58;21.60;;;7.90;99.90;;;;;;5113058;28;20126;-81
2022/01/13 12:56:12;;;;;;;48.67;21.00;;;7.10;99.90;;;;;;5112732;28;20044;-82
2022/01/13 12:58:44;;;;;;;52.20;20.27;;;7.70;99.90;;;;;;5112231;28;20120;-82
2022/01/13 13:01:21;;;;;;;44.47;20.63;;;7.20;99.90;;;;;;5112838;28;20051;-81
2022/01/13 13:04:03;;;;;;;43.45;22.02;;;7.20;99.90;;;;;;5112726;28;20500;-81
2022/01/13 13:06:32;;;;;;;44.60;21.15;;;7.20;99.90;;;;;;5112687;28;20112;-81
2022/01/13 13:09:13;;;;;;;47.28;19.27;;;7.30;99.90;;;;;;5112762;28;20402;-82